Time;durP1;ratioP1;P1;durP2;ratioP2;P2;SDS_P1;SDS_P2;PMS_P1;PMS_P2;Temp;Humidity;BMP_temperature;BMP_pressure;BME280_temperature;BME280_humidity;BME280_pressure;Samples;Min_cycle;Max_cycle;Signal;HPM_P1;HPM_P2
2024/04/01 00:01:58;;;;;;;6.80;2.92;;;;;;;;;;5117175;28;20092;-59
2024/04/01 00:04:23;;;;;;;6.25;3.00;;;;;;;;;;5132131;27;20366;-60
2024/04/01 00:06:49;;;;;;;5.20;2.78;;;;;;;;;;5119757;27;20480;-50
2024/04/01 00:09:14;;;;;;;6.72;3.40;;;;;;;;;;5113533;28;20488;-54
2024/04/01 00:11:39;;;;;;;6.18;2.80;;;;;;;;;;5113843;28;20098;-50
2024/04/01 00:14:04;;;;;;;5.22;2.45;;;;;;;;;;5112928;28;20059;-52
2024/04/01 00:16:30;;;;;;;5.32;3.05;;;;;;;;;;5113480;28;20047;-53
2024/04/01 00:18:55;;;;;;;6.90;2.90;;;;;;;;;;5105630;28;20024;-53
2024/04/01 00:21:20;;;;;;;7.68;2.53;;;;;;;;;;5111202;28;20039;-49
2024/04/01 00:23:49;;;;;;;6.57;2.90;;;;;;;;;;5095866;28;21083;-51
2024/04/01 00:26:14;;;;;;;7.90;2.83;;;;;;;;;;5092986;28;20114;-52
2024/04/01 00:28:39;;;;;;;5.03;2.38;;;;;;;;;;5092875;28;20060;-51
2024/04/01 00:31:05;;;;;;;6.57;2.90;;;;;;;;;;5092542;28;20036;-54
2024/04/01 00:33:30;;;;;;;6.35;2.67;;;;;;;;;;5092499;28;20047;-52
2024/04/01 00:35:55;;;;;;;3.72;2.30;;;;;;;;;;5092931;28;20031;-53
2024/04/01 00:38:21;;;;;;;4.60;2.28;;;;;;;;;;5104388;28;20503;-53
2024/04/01 00:40:46;;;;;;;5.68;2.30;;;;;;;;;;5113029;28;20027;-51
2024/04/01 00:43:11;;;;;;;6.95;2.78;;;;;;;;;;5113031;28;20039;-51
2024/04/01 00:45:40;;;;;;;4.22;2.17;;;;;;;;;;5112409;28;20063;-50
2024/04/01 00:48:07;;;;;;;7.00;2.10;;;;;;;;;;5111516;28;20038;-56
2024/04/01 00:50:34;;;;;;;5.60;2.50;;;;;;;;;;5113146;28;20107;-52
2024/04/01 00:53:01;;;;;;;5.10;2.20;;;;;;;;;;5111492;28;20075;-53
2024/04/01 00:55:26;;;;;;;5.28;2.70;;;;;;;;;;5112771;28;20470;-54
2024/04/01 00:57:52;;;;;;;4.13;2.15;;;;;;;;;;5112180;28;20028;-52
2024/04/01 01:00:18;;;;;;;5.63;2.75;;;;;;;;;;5112082;28;20104;-57
2024/04/01 01:02:43;;;;;;;4.60;2.10;;;;;;;;;;5112031;28;20044;-57
2024/04/01 01:05:15;;;;;;;5.35;2.28;;;;;;;;;;5111573;28;20046;-57
2024/04/01 01:07:42;;;;;;;3.50;1.88;;;;;;;;;;5110930;28;20467;-57
2024/04/01 01:10:08;;;;;;;4.35;1.95;;;;;;;;;;5111120;28;20043;-57
2024/04/01 01:12:34;;;;;;;5.22;2.00;;;;;;;;;;5112393;28;20041;-58
2024/04/01 01:14:59;;;;;;;5.13;2.08;;;;;;;;;;5111174;28;20046;-59
2024/04/01 01:17:24;;;;;;;6.65;2.08;;;;;;;;;;5110006;28;20027;-51
2024/04/01 01:19:50;;;;;;;4.50;1.85;;;;;;;;;;5110868;28;20035;-49
2024/04/01 01:22:15;;;;;;;4.13;1.90;;;;;;;;;;5111667;28;20043;-52
2024/04/01 01:24:40;;;;;;;3.95;1.80;;;;;;;;;;5110664;28;20034;-53
2024/04/01 01:27:05;;;;;;;3.70;1.70;;;;;;;;;;5112082;28;20148;-50
2024/04/01 01:29:31;;;;;;;3.78;1.67;;;;;;;;;;5112279;28;20421;-55
2024/04/01 01:32:00;;;;;;;3.50;1.85;;;;;;;;;;5111953;28;20395;-55
2024/04/01 01:34:26;;;;;;;3.55;1.50;;;;;;;;;;5107688;28;20106;-51
2024/04/01 01:36:53;;;;;;;4.20;1.65;;;;;;;;;;5109998;28;20042;-54
2024/04/01 01:39:18;;;;;;;3.78;1.70;;;;;;;;;;5111106;28;20063;-49
2024/04/01 01:41:43;;;;;;;2.50;1.30;;;;;;;;;;5111516;28;20497;-49
2024/04/01 01:44:09;;;;;;;6.00;1.77;;;;;;;;;;5112075;28;20572;-53
2024/04/01 01:46:34;;;;;;;3.08;1.35;;;;;;;;;;5111790;28;20024;-50
2024/04/01 01:49:00;;;;;;;3.70;1.50;;;;;;;;;;5111089;28;20050;-52
2024/04/01 01:51:27;;;;;;;2.92;1.48;;;;;;;;;;5111808;28;20054;-51
2024/04/01 01:53:52;;;;;;;4.05;1.60;;;;;;;;;;5111441;28;20023;-51
2024/04/01 01:56:18;;;;;;;4.53;1.75;;;;;;;;;;5111676;28;20038;-50
2024/04/01 01:58:44;;;;;;;4.25;1.58;;;;;;;;;;5111137;28;20057;-52
2024/04/01 02:01:09;;;;;;;3.72;1.52;;;;;;;;;;5111259;28;20390;-50
2024/04/01 02:03:35;;;;;;;5.95;1.65;;;;;;;;;;5111186;28;20036;-49
2024/04/01 02:06:00;;;;;;;3.65;1.42;;;;;;;;;;5111152;28;20039;-54
2024/04/01 02:08:25;;;;;;;5.00;1.35;;;;;;;;;;5111363;28;20378;-49
2024/04/01 02:10:56;;;;;;;2.58;1.40;;;;;;;;;;5111604;28;20070;-53
2024/04/01 02:13:22;;;;;;;4.13;1.67;;;;;;;;;;5110973;28;20042;-54
2024/04/01 02:15:47;;;;;;;2.55;1.20;;;;;;;;;;5111411;28;20036;-52
2024/04/01 02:18:12;;;;;;;2.72;1.20;;;;;;;;;;5111401;28;20024;-51
2024/04/01 02:20:38;;;;;;;2.67;1.20;;;;;;;;;;5110750;28;20049;-52
2024/04/01 02:23:03;;;;;;;2.45;1.08;;;;;;;;;;5111312;28;20036;-54
2024/04/01 02:25:28;;;;;;;2.05;1.20;;;;;;;;;;5110782;28;20118;-50
2024/04/01 02:27:54;;;;;;;3.13;1.40;;;;;;;;;;5110225;28;20047;-50
2024/04/01 02:30:22;;;;;;;2.20;1.17;;;;;;;;;;5110770;28;20085;-50
2024/04/01 02:32:47;;;;;;;1.77;0.90;;;;;;;;;;5111150;28;20374;-54
2024/04/01 02:35:12;;;;;;;3.13;1.40;;;;;;;;;;5110642;28;20032;-52
2024/04/01 02:37:38;;;;;;;5.70;1.25;;;;;;;;;;5110371;28;20421;-51
2024/04/01 02:40:05;;;;;;;2.88;1.20;;;;;;;;;;5109712;28;20067;-52
2024/04/01 02:42:31;;;;;;;2.85;1.15;;;;;;;;;;5108827;28;20039;-54
2024/04/01 02:44:56;;;;;;;2.40;1.17;;;;;;;;;;5108391;28;20084;-53
2024/04/01 02:47:21;;;;;;;1.90;0.98;;;;;;;;;;5107277;28;20062;-48
2024/04/01 02:49:47;;;;;;;4.47;1.10;;;;;;;;;;5106278;28;20126;-51
2024/04/01 02:52:12;;;;;;;3.25;1.20;;;;;;;;;;5108974;28;20212;-52
2024/04/01 02:54:37;;;;;;;5.45;0.90;;;;;;;;;;5109025;28;20027;-51
2024/04/01 02:57:03;;;;;;;2.65;1.15;;;;;;;;;;5109688;28;20083;-53
2024/04/01 02:59:29;;;;;;;2.53;1.02;;;;;;;;;;5106649;28;20653;-49
2024/04/01 03:01:54;;;;;;;2.92;1.20;;;;;;;;;;5108653;28;20043;-53
2024/04/01 03:04:19;;;;;;;2.08;1.00;;;;;;;;;;5106190;28;20114;-53
2024/04/01 03:06:45;;;;;;;2.03;1.10;;;;;;;;;;5108398;28;20146;-52
2024/04/01 03:09:10;;;;;;;1.80;1.00;;;;;;;;;;5110006;28;20028;-53
2024/04/01 03:11:36;;;;;;;2.20;1.10;;;;;;;;;;5110518;28;20176;-52
2024/04/01 03:14:01;;;;;;;2.47;1.08;;;;;;;;;;5110475;28;20115;-56
2024/04/01 03:16:27;;;;;;;2.58;1.08;;;;;;;;;;5109960;28;20040;-49
2024/04/01 03:18:52;;;;;;;1.83;0.82;;;;;;;;;;5110120;28;20046;-51
2024/04/01 03:21:17;;;;;;;1.75;0.90;;;;;;;;;;5110266;28;20482;-53
2024/04/01 03:23:43;;;;;;;1.35;0.80;;;;;;;;;;5109735;28;20441;-51
2024/04/01 03:26:08;;;;;;;2.38;0.90;;;;;;;;;;5110435;28;20047;-55
2024/04/01 03:28:34;;;;;;;1.70;0.95;;;;;;;;;;5110516;28;20139;-52
2024/04/01 03:31:06;;;;;;;1.38;0.93;;;;;;;;;;5110178;28;20034;-52
2024/04/01 03:33:32;;;;;;;1.65;0.88;;;;;;;;;;5125909;28;20047;-54
2024/04/01 03:35:57;;;;;;;2.30;0.80;;;;;;;;;;5110119;28;20044;-52
2024/04/01 03:38:22;;;;;;;2.88;0.98;;;;;;;;;;5111842;28;20032;-52
2024/04/01 03:40:48;;;;;;;1.00;0.60;;;;;;;;;;5113950;28;20031;-50
2024/04/01 03:43:13;;;;;;;1.95;0.70;;;;;;;;;;5114363;28;20043;-54
2024/04/01 03:45:38;;;;;;;2.50;0.95;;;;;;;;;;5114108;28;20039;-51
2024/04/01 03:48:06;;;;;;;1.42;0.80;;;;;;;;;;5113719;28;20044;-50
2024/04/01 03:50:32;;;;;;;2.08;0.90;;;;;;;;;;5112931;28;20039;-52
2024/04/01 03:52:57;;;;;;;1.15;0.70;;;;;;;;;;5114321;28;20039;-53
2024/04/01 03:55:22;;;;;;;1.63;0.70;;;;;;;;;;5113602;28;20043;-60
2024/04/01 03:57:48;;;;;;;3.60;0.80;;;;;;;;;;5114139;28;20054;-56
2024/04/01 04:00:14;;;;;;;2.28;0.80;;;;;;;;;;5113994;28;20019;-58
2024/04/01 04:02:42;;;;;;;2.20;0.85;;;;;;;;;;5113523;28;20126;-57
2024/04/01 04:05:09;;;;;;;1.77;0.77;;;;;;;;;;5114100;28;20138;-58
2024/04/01 04:07:34;;;;;;;4.95;0.93;;;;;;;;;;5112555;28;20366;-57
2024/04/01 04:10:00;;;;;;;1.35;0.80;;;;;;;;;;5113894;28;20040;-58
2024/04/01 04:12:26;;;;;;;2.33;0.70;;;;;;;;;;5112667;28;20048;-52
2024/04/01 04:14:52;;;;;;;1.30;0.80;;;;;;;;;;5111743;28;20032;-53
2024/04/01 04:17:17;;;;;;;1.05;0.70;;;;;;;;;;5113272;28;20036;-52
2024/04/01 04:19:43;;;;;;;3.05;0.90;;;;;;;;;;5112752;28;20473;-54
2024/04/01 04:22:08;;;;;;;1.27;0.73;;;;;;;;;;5113628;28;20048;-55
2024/04/01 04:24:36;;;;;;;1.92;0.85;;;;;;;;;;5113538;28;20035;-53
2024/04/01 04:27:01;;;;;;;1.40;0.80;;;;;;;;;;5113012;28;20070;-55
2024/04/01 04:29:27;;;;;;;6.53;0.80;;;;;;;;;;5113636;28;20059;-54
2024/04/01 04:31:54;;;;;;;1.50;0.80;;;;;;;;;;5113106;28;20035;-56
2024/04/01 04:34:23;;;;;;;1.73;0.70;;;;;;;;;;5113148;28;20031;-52
2024/04/01 04:36:49;;;;;;;3.83;0.90;;;;;;;;;;5128737;27;20486;-51
2024/04/01 04:39:24;;;;;;;1.40;0.80;;;;;;;;;;5129278;27;20127;-54
2024/04/01 04:41:50;;;;;;;1.58;0.70;;;;;;;;;;5112932;28;20027;-59
2024/04/01 04:44:15;;;;;;;1.45;0.70;;;;;;;;;;5112851;28;20036;-59
2024/04/01 04:46:40;;;;;;;1.17;0.70;;;;;;;;;;5113256;28;20085;-61
2024/04/01 04:49:06;;;;;;;1.67;0.70;;;;;;;;;;5112706;28;20048;-56
2024/04/01 04:51:33;;;;;;;1.55;0.60;;;;;;;;;;5112159;28;20035;-59
2024/04/01 04:53:58;;;;;;;1.50;0.70;;;;;;;;;;5112729;28;20038;-55
2024/04/01 04:56:24;;;;;;;1.70;0.80;;;;;;;;;;5113036;28;20040;-53
2024/04/01 04:58:53;;;;;;;1.08;0.65;;;;;;;;;;5112344;28;20046;-52
2024/04/01 05:01:19;;;;;;;1.77;0.80;;;;;;;;;;5112613;28;20478;-51
2024/04/01 05:03:45;;;;;;;1.33;0.70;;;;;;;;;;5128639;27;20071;-51
2024/04/01 05:06:11;;;;;;;1.13;0.70;;;;;;;;;;5111923;28;20081;-50
2024/04/01 05:08:36;;;;;;;1.05;0.60;;;;;;;;;;5112111;28;20091;-56
2024/04/01 05:11:01;;;;;;;1.20;0.60;;;;;;;;;;5113059;28;20123;-52
2024/04/01 05:13:27;;;;;;;0.82;0.50;;;;;;;;;;5112469;28;20180;-54
2024/04/01 05:15:53;;;;;;;1.42;0.70;;;;;;;;;;5112392;27;20487;-55
2024/04/01 05:18:18;;;;;;;1.30;0.70;;;;;;;;;;5112160;28;20508;-53
2024/04/01 05:20:45;;;;;;;0.60;0.50;;;;;;;;;;5112406;28;20070;-54
2024/04/01 05:23:10;;;;;;;3.17;0.70;;;;;;;;;;5111398;28;20478;-54
2024/04/01 05:25:36;;;;;;;0.93;0.52;;;;;;;;;;5112483;28;20035;-51
2024/04/01 05:28:01;;;;;;;0.90;0.52;;;;;;;;;;5112296;28;20126;-54
2024/04/01 05:30:26;;;;;;;0.73;0.60;;;;;;;;;;5111769;28;20027;-52
2024/04/01 05:32:52;;;;;;;2.15;0.70;;;;;;;;;;5112369;28;20035;-51
2024/04/01 05:35:17;;;;;;;0.98;0.60;;;;;;;;;;5112058;28;20096;-53
2024/04/01 05:37:43;;;;;;;1.15;0.50;;;;;;;;;;5111863;27;20032;-53
2024/04/01 05:40:09;;;;;;;0.73;0.50;;;;;;;;;;5111986;28;20080;-52
2024/04/01 05:42:35;;;;;;;0.70;0.50;;;;;;;;;;5112259;28;20509;-52
2024/04/01 05:45:00;;;;;;;3.38;0.65;;;;;;;;;;5111797;28;20024;-50
2024/04/01 05:47:25;;;;;;;1.42;0.50;;;;;;;;;;5111959;27;20092;-54
2024/04/01 05:49:51;;;;;;;3.17;0.60;;;;;;;;;;5111813;27;20051;-52
2024/04/01 05:52:16;;;;;;;0.98;0.50;;;;;;;;;;5111381;28;20088;-51
2024/04/01 05:54:41;;;;;;;1.23;0.60;;;;;;;;;;5109554;28;20058;-54
2024/04/01 05:57:07;;;;;;;0.95;0.60;;;;;;;;;;5110273;28;20497;-53
2024/04/01 05:59:32;;;;;;;0.85;0.50;;;;;;;;;;5110940;28;20039;-52
2024/04/01 06:01:57;;;;;;;3.05;0.47;;;;;;;;;;5107603;28;20115;-54
2024/04/01 06:04:24;;;;;;;0.85;0.50;;;;;;;;;;5110296;28;20031;-52
2024/04/01 06:06:50;;;;;;;0.60;0.50;;;;;;;;;;5109466;28;20043;-56
2024/04/01 06:09:16;;;;;;;0.90;0.60;;;;;;;;;;5110363;28;20066;-58
2024/04/01 06:11:42;;;;;;;0.77;0.55;;;;;;;;;;5110969;28;20059;-61
2024/04/01 06:14:08;;;;;;;2.90;0.50;;;;;;;;;;5110809;28;20424;-58
2024/04/01 06:16:36;;;;;;;3.03;0.50;;;;;;;;;;5111526;28;20034;-59
2024/04/01 06:19:02;;;;;;;1.85;0.80;;;;;;;;;;5109562;28;20043;-56
2024/04/01 06:21:28;;;;;;;0.32;0.32;;;;;;;;;;5111430;28;20027;-52
2024/04/01 06:23:53;;;;;;;0.80;0.50;;;;;;;;;;5111034;28;20039;-54
2024/04/01 06:26:18;;;;;;;1.13;0.50;;;;;;;;;;5110712;28;20177;-54
2024/04/01 06:28:50;;;;;;;0.80;0.57;;;;;;;;;;5111206;27;20063;-51
2024/04/01 06:31:16;;;;;;;1.33;0.63;;;;;;;;;;5111190;28;20107;-55
2024/04/01 06:33:41;;;;;;;0.73;0.50;;;;;;;;;;5110431;28;20055;-54
2024/04/01 06:36:07;;;;;;;0.80;0.40;;;;;;;;;;5110869;28;20066;-51
2024/04/01 06:38:33;;;;;;;1.08;0.70;;;;;;;;;;5111082;28;20386;-54
2024/04/01 06:40:59;;;;;;;0.68;0.50;;;;;;;;;;5110370;28;20043;-54
2024/04/01 06:43:24;;;;;;;0.55;0.43;;;;;;;;;;5111330;28;20046;-53
2024/04/01 06:45:57;;;;;;;1.52;0.50;;;;;;;;;;5110434;28;20031;-51
2024/04/01 06:48:23;;;;;;;2.38;0.55;;;;;;;;;;5126133;27;20083;-55
2024/04/01 06:50:48;;;;;;;1.20;0.60;;;;;;;;;;5110520;28;20120;-52
2024/04/01 06:53:16;;;;;;;0.80;0.50;;;;;;;;;;5109582;28;20035;-53
2024/04/01 06:55:42;;;;;;;0.68;0.45;;;;;;;;;;5109761;28;20501;-51
2024/04/01 06:58:07;;;;;;;0.88;0.40;;;;;;;;;;5109896;28;20039;-52
2024/04/01 07:00:32;;;;;;;1.45;0.60;;;;;;;;;;5108778;28;20034;-58
2024/04/01 07:02:58;;;;;;;0.75;0.47;;;;;;;;;;5107744;28;20044;-58
2024/04/01 07:05:23;;;;;;;1.35;0.60;;;;;;;;;;5096942;28;20747;-58
2024/04/01 07:07:48;;;;;;;0.98;0.50;;;;;;;;;;5138705;27;20698;-60
2024/04/01 07:10:14;;;;;;;0.73;0.47;;;;;;;;;;5109224;28;20035;-58
2024/04/01 07:12:40;;;;;;;0.70;0.40;;;;;;;;;;5124643;27;20043;-58
2024/04/01 07:15:08;;;;;;;0.90;0.50;;;;;;;;;;5108382;28;20516;-60
2024/04/01 07:17:37;;;;;;;1.70;0.75;;;;;;;;;;5110621;28;20051;-59
2024/04/01 07:20:03;;;;;;;0.85;0.52;;;;;;;;;;5091736;28;20577;-58
2024/04/01 07:22:28;;;;;;;2.05;0.70;;;;;;;;;;5109190;28;20118;-59
2024/04/01 07:24:53;;;;;;;1.15;0.70;;;;;;;;;;5109271;28;20046;-52
2024/04/01 07:27:18;;;;;;;0.90;0.50;;;;;;;;;;5110087;28;20044;-53
2024/04/01 07:29:44;;;;;;;1.40;0.70;;;;;;;;;;5109486;28;20067;-52
2024/04/01 07:32:09;;;;;;;1.88;0.60;;;;;;;;;;5109208;28;20063;-50
2024/04/01 07:34:34;;;;;;;1.67;0.57;;;;;;;;;;5108211;28;20063;-52
2024/04/01 07:37:00;;;;;;;2.05;0.80;;;;;;;;;;5109000;28;20115;-49
2024/04/01 07:39:27;;;;;;;0.57;0.50;;;;;;;;;;5108958;28;20059;-54
2024/04/01 07:41:53;;;;;;;1.13;0.52;;;;;;;;;;5108915;28;20035;-52
2024/04/01 07:44:19;;;;;;;1.08;0.50;;;;;;;;;;5109188;28;20474;-52
2024/04/01 07:46:44;;;;;;;1.23;0.65;;;;;;;;;;5109560;28;20039;-52
2024/04/01 07:49:11;;;;;;;0.70;0.47;;;;;;;;;;5108780;28;20048;-55
2024/04/01 07:51:37;;;;;;;1.58;0.60;;;;;;;;;;5089489;28;20032;-55
2024/04/01 07:54:02;;;;;;;0.95;0.60;;;;;;;;;;5108558;28;20092;-50
2024/04/01 07:56:28;;;;;;;0.85;0.50;;;;;;;;;;5108466;28;20052;-55
2024/04/01 07:58:54;;;;;;;0.98;0.50;;;;;;;;;;5108358;28;20145;-52
2024/04/01 08:01:19;;;;;;;1.98;0.77;;;;;;;;;;5108650;28;20043;-52
2024/04/01 08:03:45;;;;;;;1.67;0.70;;;;;;;;;;5109285;28;20035;-53
2024/04/01 08:06:11;;;;;;;1.48;0.70;;;;;;;;;;5109714;28;20038;-51
2024/04/01 08:08:37;;;;;;;3.47;0.70;;;;;;;;;;5109409;28;20055;-55
2024/04/01 08:11:02;;;;;;;1.33;0.70;;;;;;;;;;5109761;28;20372;-51
2024/04/01 08:13:28;;;;;;;2.13;0.60;;;;;;;;;;5110093;28;20032;-51
2024/04/01 08:16:03;;;;;;;1.92;0.52;;;;;;;;;;5108983;28;20035;-50
2024/04/01 08:18:28;;;;;;;1.33;0.63;;;;;;;;;;5106609;28;20043;-53
2024/04/01 08:20:56;;;;;;;1.75;0.70;;;;;;;;;;5106756;28;20131;-52
2024/04/01 08:23:22;;;;;;;2.25;0.80;;;;;;;;;;5109681;28;20034;-51
2024/04/01 08:25:47;;;;;;;2.47;0.60;;;;;;;;;;5111735;28;20032;-57
2024/04/01 08:28:12;;;;;;;0.98;0.60;;;;;;;;;;5113071;28;20763;-53
2024/04/01 08:30:38;;;;;;;1.58;0.52;;;;;;;;;;5113420;28;20115;-55
2024/04/01 08:33:03;;;;;;;2.55;0.60;;;;;;;;;;5113257;28;20035;-52
2024/04/01 08:35:28;;;;;;;1.98;0.55;;;;;;;;;;5113207;28;20089;-54
2024/04/01 08:37:54;;;;;;;4.22;0.68;;;;;;;;;;5113211;28;20427;-52
2024/04/01 08:40:19;;;;;;;0.88;0.50;;;;;;;;;;5112738;28;20529;-51
2024/04/01 08:42:46;;;;;;;1.33;0.50;;;;;;;;;;5112861;28;20044;-53
2024/04/01 08:45:13;;;;;;;1.33;0.60;;;;;;;;;;5111272;28;20102;-55
2024/04/01 08:47:42;;;;;;;2.10;0.57;;;;;;;;;;5107097;28;20381;-50
2024/04/01 08:50:13;;;;;;;0.70;0.40;;;;;;;;;;5112532;28;20075;-61
2024/04/01 08:52:48;;;;;;;1.85;0.60;;;;;;;;;;5112613;28;20406;-60
2024/04/01 08:55:14;;;;;;;5.38;0.60;;;;;;;;;;5110601;28;20065;-58
2024/04/01 08:57:39;;;;;;;0.80;0.50;;;;;;;;;;5110862;28;20458;-60
2024/04/01 09:00:07;;;;;;;1.30;0.73;;;;;;;;;;5112613;28;20089;-61
2024/04/01 09:02:32;;;;;;;2.45;0.60;;;;;;;;;;5110922;28;20032;-58
2024/04/01 09:04:57;;;;;;;1.95;0.57;;;;;;;;;;5111724;28;20043;-60
2024/04/01 09:07:23;;;;;;;2.15;0.60;;;;;;;;;;5110476;28;20036;-58
2024/04/01 09:09:48;;;;;;;1.63;0.70;;;;;;;;;;5111873;28;20241;-59
2024/04/01 09:12:14;;;;;;;0.52;0.38;;;;;;;;;;5111611;27;20076;-58
2024/04/01 09:14:39;;;;;;;2.63;0.60;;;;;;;;;;5112151;28;20039;-59
2024/04/01 09:17:04;;;;;;;0.93;0.45;;;;;;;;;;5112180;28;20059;-60
2024/04/01 09:19:30;;;;;;;3.63;0.60;;;;;;;;;;5109886;28;20069;-60
2024/04/01 09:21:57;;;;;;;1.45;0.50;;;;;;;;;;5112345;28;20032;-59
2024/04/01 09:24:22;;;;;;;2.40;0.60;;;;;;;;;;5111974;28;20035;-58
2024/04/01 09:26:48;;;;;;;0.85;0.55;;;;;;;;;;5111359;28;20591;-62
2024/04/01 09:29:13;;;;;;;1.17;0.68;;;;;;;;;;5111908;28;20422;-59
2024/04/01 09:31:38;;;;;;;0.95;0.50;;;;;;;;;;5109013;28;20043;-62
2024/04/01 09:34:04;;;;;;;1.95;0.70;;;;;;;;;;5110315;28;20076;-60
2024/04/01 09:36:29;;;;;;;0.85;0.40;;;;;;;;;;5107630;28;20039;-60
2024/04/01 09:38:57;;;;;;;2.30;1.13;;;;;;;;;;5109589;28;20028;-56
2024/04/01 09:41:23;;;;;;;1.27;0.50;;;;;;;;;;5109339;28;20529;-53
2024/04/01 09:43:56;;;;;;;1.55;0.52;;;;;;;;;;5112706;27;20035;-53
2024/04/01 09:46:21;;;;;;;1.52;0.55;;;;;;;;;;5110084;28;20032;-55
2024/04/01 09:48:47;;;;;;;2.15;0.73;;;;;;;;;;5110833;27;20058;-52
2024/04/01 09:51:13;;;;;;;0.98;0.40;;;;;;;;;;5109248;28;20027;-60
2024/04/01 09:53:39;;;;;;;1.35;0.50;;;;;;;;;;5106597;28;20047;-57
2024/04/01 09:56:43;;;;;;;1.33;0.60;;;;;;;;;;5100190;28;20080;-60
2024/04/01 09:59:12;;;;;;;;;;;;;;;;;;5107046;28;20039;-59
2024/04/01 10:02:19;;;;;;;0.82;0.50;;;;;;;;;;5111419;28;20277;-57
2024/04/01 10:05:01;;;;;;;1.23;0.40;;;;;;;;;;5092694;28;20039;-50
2024/04/01 10:08:07;;;;;;;0.65;0.45;;;;;;;;;;5109314;28;20478;-54
2024/04/01 10:10:53;;;;;;;1.70;0.50;;;;;;;;;;5085096;28;20051;-52
2024/04/01 10:13:43;;;;;;;0.38;0.38;;;;;;;;;;5108094;28;20450;-55
2024/04/01 10:16:39;;;;;;;1.08;0.55;;;;;;;;;;5108331;28;20047;-53
2024/04/01 10:19:23;;;;;;;1.00;0.55;;;;;;;;;;5106407;28;20055;-53
2024/04/01 10:22:00;;;;;;;1.13;0.50;;;;;;;;;;5108960;28;20031;-52
2024/04/01 10:24:35;;;;;;;1.27;0.50;;;;;;;;;;5109854;28;20035;-52
2024/04/01 10:27:19;;;;;;;0.35;0.28;;;;;;;;;;5110058;28;20046;-51
2024/04/01 10:29:53;;;;;;;0.90;0.50;;;;;;;;;;5101375;28;20038;-52
2024/04/01 10:33:04;;;;;;;0.20;0.20;;;;;;;;;;5089349;28;20058;-55
2024/04/01 10:35:41;;;;;;;1.67;0.30;;;;;;;;;;5102540;28;20054;-57
2024/04/01 10:38:25;;;;;;;1.90;0.50;;;;;;;;;;5108285;28;20039;-61
2024/04/01 10:41:29;;;;;;;0.47;0.40;;;;;;;;;;5104223;28;20042;-60
2024/04/01 10:44:25;;;;;;;1.00;0.50;;;;;;;;;;5105584;28;20466;-62
2024/04/01 10:47:10;;;;;;;0.68;0.40;;;;;;;;;;5104256;28;20046;-52
2024/04/01 10:49:47;;;;;;;1.15;0.52;;;;;;;;;;5089800;28;20054;-54
2024/04/01 10:52:25;;;;;;;0.95;0.40;;;;;;;;;;5108129;28;20071;-53
2024/04/01 10:55:03;;;;;;;1.20;0.50;;;;;;;;;;5103852;28;20410;-52
2024/04/01 10:58:13;;;;;;;6.53;0.60;;;;;;;;;;5110180;28;20122;-49
2024/04/01 11:00:50;;;;;;;1.95;0.55;;;;;;;;;;5105688;28;20148;-56
2024/04/01 11:03:33;;;;;;;1.10;0.50;;;;;;;;;;5108713;28;20458;-60
2024/04/01 11:06:50;;;;;;;2.78;0.60;;;;;;;;;;5109017;28;20085;-61
2024/04/01 11:09:15;;;;;;;1.00;0.40;;;;;;;;;;5085469;28;20031;-59
2024/04/01 11:12:17;;;;;;;0.98;0.40;;;;;;;;;;5108283;28;20036;-59
2024/04/01 11:14:44;;;;;;;2.55;0.70;;;;;;;;;;5109175;28;20531;-51
2024/04/01 11:17:10;;;;;;;1.33;0.60;;;;;;;;;;5108157;28;20039;-50
2024/04/01 11:19:54;;;;;;;1.70;0.70;;;;;;;;;;5107070;28;20474;-51
2024/04/01 11:22:42;;;;;;;0.65;0.47;;;;;;;;;;5107772;28;20494;-54
2024/04/01 11:25:22;;;;;;;1.20;0.57;;;;;;;;;;5109442;28;20388;-55
2024/04/01 11:27:56;;;;;;;1.13;0.50;;;;;;;;;;5110313;28;20526;-56
2024/04/01 11:30:23;;;;;;;1.90;0.60;;;;;;;;;;5110094;28;20032;-57
2024/04/01 11:32:58;;;;;;;1.00;0.45;;;;;;;;;;5110137;28;20082;-53
2024/04/01 11:35:28;;;;;;;1.23;0.60;;;;;;;;;;5108771;28;20505;-55
2024/04/01 11:38:17;;;;;;;4.10;0.68;;;;;;;;;;5091992;28;20047;-54
2024/04/01 11:40:44;;;;;;;0.57;0.40;;;;;;;;;;5109977;28;20020;-53
2024/04/01 11:43:11;;;;;;;0.98;0.60;;;;;;;;;;5108590;28;20043;-55
2024/04/01 11:45:43;;;;;;;1.48;0.52;;;;;;;;;;5109658;28;20047;-55
2024/04/01 11:48:09;;;;;;;1.50;0.57;;;;;;;;;;5108358;28;20031;-55
2024/04/01 11:50:34;;;;;;;0.65;0.50;;;;;;;;;;5085879;28;20054;-63
2024/04/01 11:53:05;;;;;;;4.47;0.80;;;;;;;;;;5106267;28;20028;-61
2024/04/01 11:55:31;;;;;;;5.22;0.70;;;;;;;;;;5103451;28;20019;-61
2024/04/01 11:58:12;;;;;;;2.33;0.75;;;;;;;;;;5104725;28;20047;-62
2024/04/01 12:00:49;;;;;;;0.90;0.50;;;;;;;;;;5119583;27;20780;-61
2024/04/01 12:03:14;;;;;;;1.92;0.80;;;;;;;;;;5110610;28;20046;-59
2024/04/01 12:05:50;;;;;;;0.98;0.60;;;;;;;;;;5112904;28;20400;-59
2024/04/01 12:08:19;;;;;;;3.83;0.63;;;;;;;;;;5112438;28;20027;-61
2024/04/01 12:10:45;;;;;;;1.65;0.65;;;;;;;;;;5114161;28;20039;-56
2024/04/01 12:13:11;;;;;;;1.17;0.52;;;;;;;;;;5112050;28;20050;-61
2024/04/01 12:15:37;;;;;;;2.03;0.60;;;;;;;;;;5113411;28;20031;-58
2024/04/01 12:18:04;;;;;;;1.33;0.50;;;;;;;;;;5113564;28;20296;-62
2024/04/01 12:20:34;;;;;;;1.30;0.73;;;;;;;;;;5145735;27;20043;-53
2024/04/01 12:23:12;;;;;;;1.08;0.47;;;;;;;;;;5111841;28;20036;-53
2024/04/01 12:25:37;;;;;;;2.15;0.50;;;;;;;;;;5123686;27;20042;-54
2024/04/01 12:28:08;;;;;;;3.00;0.70;;;;;;;;;;5113104;28;20031;-48
2024/04/01 12:30:36;;;;;;;2.17;0.50;;;;;;;;;;5110550;28;20542;-52
2024/04/01 12:33:03;;;;;;;0.63;0.47;;;;;;;;;;5145554;27;20035;-54
2024/04/01 12:35:31;;;;;;;10.20;0.63;;;;;;;;;;5110200;28;20505;-51
2024/04/01 12:38:03;;;;;;;2.25;0.60;;;;;;;;;;5110560;28;20066;-52
2024/04/01 12:40:28;;;;;;;0.95;0.50;;;;;;;;;;5110722;28;20027;-53
2024/04/01 12:42:54;;;;;;;1.55;0.40;;;;;;;;;;5111608;28;20454;-52
2024/04/01 12:45:20;;;;;;;1.75;0.77;;;;;;;;;;5112536;28;20039;-51
2024/04/01 12:47:46;;;;;;;1.90;0.60;;;;;;;;;;5112518;28;20462;-54
2024/04/01 12:50:13;;;;;;;3.88;0.70;;;;;;;;;;5111852;28;20135;-48
2024/04/01 12:53:01;;;;;;;2.63;0.63;;;;;;;;;;5111942;28;20032;-52
2024/04/01 12:55:30;;;;;;;4.28;0.60;;;;;;;;;;5112399;28;20059;-58
2024/04/01 12:58:15;;;;;;;1.38;0.60;;;;;;;;;;5112187;28;20386;-58
2024/04/01 13:00:42;;;;;;;1.40;0.57;;;;;;;;;;5111573;28;20444;-59
2024/04/01 13:03:13;;;;;;;2.13;0.60;;;;;;;;;;5111539;28;20077;-59
2024/04/01 13:06:06;;;;;;;3.70;0.55;;;;;;;;;;5112831;28;20043;-56
2024/04/01 13:08:44;;;;;;;3.13;0.60;;;;;;;;;;5111883;28;20130;-58
2024/04/01 13:11:26;;;;;;;3.17;0.65;;;;;;;;;;5112075;28;20782;-56
2024/04/01 13:14:01;;;;;;;2.35;0.70;;;;;;;;;;5111473;28;20126;-59
2024/04/01 13:16:44;;;;;;;0.65;0.40;;;;;;;;;;5111936;28;20262;-57
2024/04/01 13:19:21;;;;;;;2.20;0.60;;;;;;;;;;5112713;28;20052;-58
2024/04/01 13:21:54;;;;;;;1.38;0.50;;;;;;;;;;5112502;28;20099;-58
2024/04/01 13:24:24;;;;;;;;;;;;;;;;;;5127964;27;20059;-54
2024/04/01 13:27:05;;;;;;;2.40;0.68;;;;;;;;;;5110646;28;20282;-50
2024/04/01 13:30:07;;;;;;;1.00;0.47;;;;;;;;;;5110660;28;20043;-51
2024/04/01 13:32:55;;;;;;;2.05;0.65;;;;;;;;;;5097569;28;20042;-53
2024/04/01 13:35:49;;;;;;;1.00;0.68;;;;;;;;;;5124033;27;20044;-54
2024/04/01 13:38:39;;;;;;;2.50;0.70;;;;;;;;;;5086331;28;20024;-61
2024/04/01 13:41:29;;;;;;;1.08;0.57;;;;;;;;;;5088114;28;20279;-59
2024/04/01 13:44:11;;;;;;;0.90;0.50;;;;;;;;;;5085503;28;20116;-61
2024/04/01 13:46:48;;;;;;;1.38;0.55;;;;;;;;;;5088612;28;20093;-60
2024/04/01 13:49:38;;;;;;;2.92;0.75;;;;;;;;;;5088725;28;20560;-58
2024/04/01 13:52:37;;;;;;;1.63;0.60;;;;;;;;;;5088210;28;20043;-61
2024/04/01 13:55:14;;;;;;;1.98;0.65;;;;;;;;;;5088368;28;20039;-56
2024/04/01 13:57:57;;;;;;;2.53;0.70;;;;;;;;;;5086833;28;20031;-62
2024/04/01 14:00:52;;;;;;;1.55;0.40;;;;;;;;;;5104077;28;20035;-60
2024/04/01 14:03:35;;;;;;;3.10;0.60;;;;;;;;;;5103923;28;20524;-61
2024/04/01 14:06:06;;;;;;;1.20;0.63;;;;;;;;;;5107947;28;20034;-63
2024/04/01 14:08:39;;;;;;;1.98;0.50;;;;;;;;;;5106456;28;20123;-63
2024/04/01 14:11:20;;;;;;;1.08;0.45;;;;;;;;;;5106418;28;20096;-63
2024/04/01 14:13:52;;;;;;;1.13;0.68;;;;;;;;;;5106066;28;20066;-60
2024/04/01 14:16:26;;;;;;;4.73;0.70;;;;;;;;;;5098361;28;20118;-61
2024/04/01 14:18:57;;;;;;;;;;;;;;;;;;5106124;28;20315;-61
2024/04/01 14:21:22;;;;;;;3.00;0.60;;;;;;;;;;5104535;28;20386;-59
2024/04/01 14:23:48;;;;;;;0.85;0.50;;;;;;;;;;5101282;28;20071;-62
2024/04/01 14:26:14;;;;;;;2.72;0.70;;;;;;;;;;5106804;28;20443;-61
2024/04/01 14:28:39;;;;;;;2.40;0.80;;;;;;;;;;5106515;28;20032;-60
2024/04/01 14:31:04;;;;;;;0.98;0.50;;;;;;;;;;5107081;28;20063;-59
2024/04/01 14:33:30;;;;;;;1.45;0.70;;;;;;;;;;5109111;28;20035;-59
2024/04/01 14:35:55;;;;;;;1.70;0.60;;;;;;;;;;5108396;28;20114;-60
2024/04/01 14:38:21;;;;;;;1.88;0.88;;;;;;;;;;5109260;28;20043;-61
2024/04/01 14:40:47;;;;;;;1.63;0.52;;;;;;;;;;5110188;28;20538;-58
2024/04/01 14:43:13;;;;;;;1.77;0.60;;;;;;;;;;5141808;27;20497;-61
2024/04/01 14:45:39;;;;;;;4.38;0.80;;;;;;;;;;5111565;27;20127;-56
2024/04/01 14:48:06;;;;;;;3.92;0.63;;;;;;;;;;5098943;27;20038;-61
2024/04/01 14:50:32;;;;;;;2.83;0.80;;;;;;;;;;5104647;28;20534;-60
2024/04/01 14:52:58;;;;;;;2.13;0.63;;;;;;;;;;5089825;28;20366;-61
2024/04/01 14:55:24;;;;;;;2.92;0.60;;;;;;;;;;5107839;28;20539;-61
2024/04/01 14:57:50;;;;;;;3.78;0.60;;;;;;;;;;5107553;27;20463;-58